Superferry II — SWKV — position and weather

sailwx.info

Track history (hours):
 
Tides and Currents Weather Stations Pressure Air Temp Water Temp Dewpoint Dewpoint Depression Visibility Wind Speed Wind Dir Waves Ship Positions

Superferry II

Last reported at 2017-Apr-26 05:13 UTC. Time now 2017-Apr-26 06:09 UTC.
Position N 37°60' E 024°09'.

Length 122 m; draft 4.7 m.

Type: Passenger vessel. MMSI: 237001000.

Date/timePositionNaut miles runAvg speedWind from/ knotsBaromVisibWave heightAir tempDewpointWater temp
2017-Apr-26 05:13N 37°60' E 024°09'519.8
2017-Apr-26 05:00N 38°01' E 024°03'2 1.3
2017-Apr-26 03:21N 38°01' E 024°01'0 0.0
2017-Apr-26 02:59N 38°01' E 024°01'0 0.0
2017-Apr-26 02:29N 38°01' E 024°01'0 0.0
2017-Apr-26 02:00N 38°01' E 024°01'0 0.0
2017-Apr-26 01:16N 38°01' E 024°01'0 0.0
2017-Apr-25 21:35N 38°01' E 024°01'0 0.0
2017-Apr-25 21:30N 38°01' E 024°01'0 0.0
2017-Apr-25 21:00N 38°01' E 024°01'0 0.0
2017-Apr-25 20:03N 38°01' E 024°01'0 0.0
2017-Apr-25 19:54N 38°01' E 024°01'0 0.0
2017-Apr-25 19:26N 38°01' E 024°01'0 0.0
2017-Apr-25 18:54N 38°01' E 024°01'0 0.0
2017-Apr-25 18:30N 38°01' E 024°01'0 0.0
2017-Apr-25 17:59N 38°01' E 024°01'0 0.0
2017-Apr-25 17:29N 38°01' E 024°01'0 0.1
2017-Apr-25 15:19N 38°02' E 024°01'619.0
2017-Apr-25 15:00N 37°60' E 024°08'3715.2
2017-Apr-25 12:36N 37°45' E 024°51'220.6
2017-Apr-25 12:30N 37°43' E 024°52'1020.3
2017-Apr-25 12:00N 37°36' E 025°01'815.1
2017-Apr-25 11:30N 37°32' E 025°09'611.9
2017-Apr-25 11:01N 37°29' E 025°16'3 6.4
2017-Apr-25 10:30N 37°28' E 025°19'0 0.0
2017-Apr-25 10:00N 37°28' E 025°19'0 0.0
2017-Apr-25 09:30N 37°28' E 025°19'611.3
2017-Apr-25 09:00N 37°30' E 025°13'5 9.8
2017-Apr-25 08:31N 37°33' E 025°08'5216.5
2017-Apr-25 05:21N 37°59' E 024°11'719.8
2017-Apr-25 05:00N 38°01' E 024°03'1 0.9
2017-Apr-25 03:20N 38°01' E 024°01'0 0.0
2017-Apr-25 02:59N 38°01' E 024°01'0 0.0
2017-Apr-25 01:21N 38°01' E 024°01'0 0.0
2017-Apr-24 22:21N 38°01' E 024°01'0 0.0
2017-Apr-24 21:54N 38°01' E 024°01'0 0.0
2017-Apr-24 21:17N 38°01' E 024°01'0 0.0
2017-Apr-24 20:53N 38°01' E 024°01'0 0.0
2017-Apr-24 20:20N 38°01' E 024°01'0 0.0
2017-Apr-24 19:51N 38°01' E 024°01'0 0.0
2017-Apr-24 19:26N 38°01' E 024°01'0 0.0
2017-Apr-24 18:59N 38°01' E 024°01'0 0.0
2017-Apr-24 15:21N 38°01' E 024°01'818.7
2017-Apr-24 14:57N 37°59' E 024°10'3515.4
2017-Apr-24 12:40N 37°45' E 024°50'420.4
2017-Apr-24 12:29N 37°42' E 024°54'1020.3
2017-Apr-24 12:00N 37°35' E 025°03'612.3
2017-Apr-24 11:30N 37°32' E 025°09'611.3
2017-Apr-24 11:01N 37°29' E 025°15'4 7.0
2017-Apr-24 10:30N 37°28' E 025°19'0 0.0
2017-Apr-24 10:01N 37°28' E 025°19'0 0.0
2017-Apr-24 09:30N 37°28' E 025°19'611.8
2017-Apr-24 09:00N 37°30' E 025°13'510.3
2017-Apr-24 08:31N 37°33' E 025°07'5316.2
2017-Apr-24 05:13N 37°60' E 024°09'420.1
2017-Apr-24 05:00N 38°01' E 024°03'2 0.2
2017-Apr-23 17:24N 38°01' E 024°01'616.2
2017-Apr-23 17:00N 37°60' E 024°09'1020.2
2017-Apr-23 16:30N 37°57' E 024°21'2714.2
2017-Apr-23 14:37N 37°45' E 024°51'1320.4
2017-Apr-23 14:01N 37°36' E 025°02'713.7
2017-Apr-23 13:30N 37°32' E 025°09'612.7
2017-Apr-23 13:00N 37°29' E 025°16'3 5.9
2017-Apr-23 12:30N 37°28' E 025°20'0 0.0
2017-Apr-23 12:00N 37°28' E 025°20'0 0.0
2017-Apr-23 11:30N 37°28' E 025°20'0 0.0
2017-Apr-23 11:00N 37°28' E 025°20'0 0.0
2017-Apr-23 10:30N 37°28' E 025°20'0 0.0
2017-Apr-23 09:59N 37°28' E 025°20'0 0.0
2017-Apr-23 09:22N 37°28' E 025°20'0 0.0
2017-Apr-23 09:00N 37°28' E 025°20'0 0.0
2017-Apr-23 08:30N 37°28' E 025°20'0 0.0
2017-Apr-23 08:00N 37°28' E 025°20'0 0.0
2017-Apr-23 07:30N 37°28' E 025°20'0 0.0
2017-Apr-23 07:00N 37°28' E 025°20'0 0.0
2017-Apr-23 06:30N 37°28' E 025°20'0 0.0
2017-Apr-23 06:00N 37°28' E 025°20'0 0.0
2017-Apr-23 05:30N 37°28' E 025°20'0 0.0
2017-Apr-23 05:00N 37°28' E 025°20'0 0.0
2017-Apr-23 04:30N 37°28' E 025°20'0 0.0
2017-Apr-23 04:00N 37°28' E 025°20'0 0.0
2017-Apr-23 03:30N 37°28' E 025°20'0 0.0
2017-Apr-23 03:00N 37°28' E 025°20'0 0.0
2017-Apr-23 02:30N 37°28' E 025°20'0 0.0
2017-Apr-23 02:00N 37°28' E 025°20'0 0.0
2017-Apr-23 01:30N 37°28' E 025°20'0 0.0
2017-Apr-23 01:00N 37°28' E 025°20'0 0.0
2017-Apr-23 00:30N 37°28' E 025°20'0 0.0
2017-Apr-23 00:00N 37°28' E 025°20'0 0.0
2017-Apr-22 23:30N 37°28' E 025°20'0 0.0
2017-Apr-22 23:00N 37°28' E 025°20'0 0.0
2017-Apr-22 22:30N 37°28' E 025°20'0 0.0
2017-Apr-22 22:00N 37°28' E 025°20'0 0.0
2017-Apr-22 21:30N 37°28' E 025°20'0 0.0
2017-Apr-22 21:00N 37°28' E 025°20'0 0.0
2017-Apr-22 20:30N 37°28' E 025°20'0 0.0
2017-Apr-22 20:00N 37°28' E 025°20'0 0.0
2017-Apr-22 19:30N 37°28' E 025°20'0 0.0
2017-Apr-22 19:00N 37°28' E 025°20'4 7.7
2017-Apr-22 18:30N 37°29' E 025°15'511.0
2017-Apr-22 18:00N 37°32' E 025°09'714.7
2017-Apr-22 17:30N 37°36' E 025°02'4616.3
2017-Apr-22 14:42N 37°59' E 024°11'419.9
2017-Apr-22 14:30N 38°00' E 024°06'5 4.1
2017-Apr-22 13:22N 38°01' E 024°01'617.0
2017-Apr-22 13:00N 37°60' E 024°08'3716.0
2017-Apr-22 10:43N 37°45' E 024°51'820.0
2017-Apr-22 10:18N 37°39' E 024°58'620.0
2017-Apr-22 10:01N 37°35' E 025°03'510.9
2017-Apr-22 09:30N 37°32' E 025°09'714.4
2017-Apr-22 09:01N 37°28' E 025°17'2 3.7
2017-Apr-22 08:30N 37°28' E 025°19'918.0
2017-Apr-22 08:01N 37°32' E 025°09'611.5
2017-Apr-22 07:30N 37°35' E 025°03'4517.2
2017-Apr-22 04:52N 37°58' E 024°14'720.2
2017-Apr-22 04:30N 38°00' E 024°05'3 0.6
2017-Apr-21 22:50N 38°01' E 024°01'514.7
2017-Apr-21 22:30N 37°60' E 024°07'1020.1
2017-Apr-21 22:00N 37°55' E 024°18'1020.1
2017-Apr-21 21:30N 37°51' E 024°29'1020.1
2017-Apr-21 21:00N 37°46' E 024°41'1020.2
2017-Apr-21 20:30N 37°41' E 024°51'1020.1
2017-Apr-21 20:00N 37°35' E 025°02'1020.3
2017-Apr-21 19:30N 37°30' E 025°13'611.5
2017-Apr-21 19:00N 37°28' E 025°19'4 8.0
2017-Apr-21 18:30N 37°29' E 025°15'510.4
2017-Apr-21 18:00N 37°32' E 025°09'816.7
2017-Apr-21 17:31N 37°37' E 025°01'4616.2
2017-Apr-21 14:39N 37°59' E 024°09'319.6
2017-Apr-21 14:30N 38°00' E 024°06'4 3.3
2017-Apr-21 13:17N 38°01' E 024°01'818.9
2017-Apr-21 12:52N 37°59' E 024°10'3515.9
2017-Apr-21 10:41N 37°45' E 024°51'820.2
2017-Apr-21 10:16N 37°39' E 024°58'519.9
2017-Apr-21 10:00N 37°35' E 025°03'815.0
2017-Apr-21 09:30N 37°31' E 025°11'713.1
2017-Apr-21 09:00N 37°28' E 025°18'1 2.7
2017-Apr-21 08:30N 37°28' E 025°20'0 0.0
2017-Apr-21 08:00N 37°28' E 025°20'0 0.0
2017-Apr-21 07:30N 37°28' E 025°20'0 0.0
2017-Apr-21 07:01N 37°28' E 025°20'0 0.0
2017-Apr-21 06:30N 37°28' E 025°20'0 0.0
2017-Apr-21 06:01N 37°28' E 025°20'0 0.0
2017-Apr-21 05:30N 37°28' E 025°20'0 0.0
2017-Apr-21 05:00N 37°28' E 025°20'0 0.0
2017-Apr-21 04:30N 37°28' E 025°20'0 0.0
2017-Apr-21 04:00N 37°28' E 025°20'0 0.0
2017-Apr-21 03:31N 37°28' E 025°20'0 0.0
2017-Apr-21 03:00N 37°28' E 025°20'0 0.0
2017-Apr-21 02:30N 37°28' E 025°20'0 0.0
2017-Apr-21 02:00N 37°28' E 025°20'0 0.0
2017-Apr-21 01:31N 37°28' E 025°20'0 0.0
2017-Apr-21 01:00N 37°28' E 025°20'0 0.0
2017-Apr-21 00:30N 37°28' E 025°20'0 0.0
2017-Apr-21 00:00N 37°28' E 025°20'0 0.0
2017-Apr-20 23:30N 37°28' E 025°20'0 0.0
2017-Apr-20 23:00N 37°28' E 025°20'0 0.0
2017-Apr-20 22:30N 37°28' E 025°20'0 0.0
2017-Apr-20 22:00N 37°28' E 025°20'0 0.0
2017-Apr-20 21:30N 37°28' E 025°20'0 0.0
2017-Apr-20 21:00N 37°28' E 025°20'0 0.0
2017-Apr-20 20:30N 37°28' E 025°20'0 0.0
2017-Apr-20 20:00N 37°28' E 025°20'0 0.0
2017-Apr-20 19:30N 37°28' E 025°20'0 0.0
2017-Apr-20 19:00N 37°28' E 025°20'4 7.1
2017-Apr-20 18:30N 37°29' E 025°15'611.5
2017-Apr-20 18:00N 37°32' E 025°09'713.8
2017-Apr-20 17:30N 37°36' E 025°02'1220.0
2017-Apr-20 16:55N 37°45' E 024°52'819.9
2017-Apr-20 16:30N 37°51' E 024°45'2 4.4
2017-Apr-20 16:00N 37°52' E 024°42'2819.8
2017-Apr-20 14:37N 37°60' E 024°09'220.0
2017-Apr-20 14:30N 38°00' E 024°06'4 3.4
2017-Apr-20 13:16N 38°01' E 024°01'518.8
2017-Apr-20 13:00N 38°00' E 024°07'3815.9
2017-Apr-20 10:39N 37°45' E 024°51'320.3
2017-Apr-20 10:31N 37°43' E 024°53'1020.2
2017-Apr-20 10:01N 37°36' E 025°02'713.2
2017-Apr-20 09:30N 37°32' E 025°09'715.0
2017-Apr-20 09:00N 37°28' E 025°17'2 3.3
2017-Apr-20 08:30N 37°28' E 025°19'0 0.0
2017-Apr-20 08:00N 37°28' E 025°19'0 0.0
2017-Apr-20 07:31N 37°28' E 025°19'0 0.0
2017-Apr-20 07:00N 37°28' E 025°19'0 0.0
2017-Apr-20 06:31N 37°28' E 025°19'0 0.0
2017-Apr-20 06:01N 37°28' E 025°19'0 0.0
2017-Apr-20 05:31N 37°28' E 025°19'0 0.0
2017-Apr-20 05:01N 37°28' E 025°19'0 0.0
2017-Apr-20 04:30N 37°28' E 025°19'0 0.0
2017-Apr-20 04:01N 37°28' E 025°19'0 0.0
2017-Apr-20 03:31N 37°28' E 025°19'0 0.0
2017-Apr-20 03:00N 37°28' E 025°19'0 0.0
2017-Apr-20 02:30N 37°28' E 025°19'0 0.0
2017-Apr-20 02:01N 37°28' E 025°19'0 0.0
2017-Apr-20 01:30N 37°28' E 025°19'0 0.0
2017-Apr-20 01:01N 37°28' E 025°19'0 0.0
2017-Apr-20 00:30N 37°28' E 025°19'0 0.0
2017-Apr-20 00:00N 37°28' E 025°19'0 0.0
2017-Apr-19 23:31N 37°28' E 025°19'0 0.0
2017-Apr-19 23:01N 37°28' E 025°19'0 0.0
2017-Apr-19 22:30N 37°28' E 025°19'0 0.0
2017-Apr-19 22:00N 37°28' E 025°19'0 0.0
2017-Apr-19 21:30N 37°28' E 025°19'0 0.0
2017-Apr-19 21:01N 37°28' E 025°19'0 0.0
2017-Apr-19 20:31N 37°28' E 025°19'0 0.0
2017-Apr-19 20:00N 37°28' E 025°19'0 0.0
2017-Apr-19 19:30N 37°28' E 025°19'0 0.0
2017-Apr-19 19:00N 37°28' E 025°19'4 7.1
2017-Apr-19 18:30N 37°29' E 025°15'611.5
2017-Apr-19 18:00N 37°32' E 025°09'816.1
2017-Apr-19 17:30N 37°37' E 025°01'4616.4
2017-Apr-19 14:40N 37°59' E 024°10'319.7
2017-Apr-19 14:30N 38°00' E 024°06'4 1.9
2017-Apr-19 12:37N 38°02' E 024°01'319.4
2017-Apr-19 12:29N 38°01' E 024°04'4015.5
2017-Apr-19 09:54N 37°45' E 024°51'820.2
2017-Apr-19 09:30N 37°39' E 024°58'1020.0
2017-Apr-19 09:00N 37°33' E 025°07'3 5.9
2017-Apr-19 08:30N 37°31' E 025°11'815.4
2017-Apr-19 08:00N 37°28' E 025°19'0 0.0
2017-Apr-19 07:30N 37°28' E 025°19'0 0.0
2017-Apr-19 07:00N 37°28' E 025°19'0 0.0
2017-Apr-19 06:30N 37°28' E 025°19'0 0.0
2017-Apr-19 06:00N 37°28' E 025°19'0 0.0
2017-Apr-19 05:30N 37°28' E 025°19'0 0.0
2017-Apr-19 05:00N 37°28' E 025°19'0 0.0
2017-Apr-19 04:30N 37°28' E 025°19'0 0.0
2017-Apr-19 04:00N 37°28' E 025°19'0 0.0
2017-Apr-19 03:30N 37°28' E 025°19'0 0.0
2017-Apr-19 03:00N 37°28' E 025°19'0 0.0
2017-Apr-19 02:30N 37°28' E 025°19'0 0.0
2017-Apr-19 02:00N 37°28' E 025°19'0 0.0
2017-Apr-19 01:30N 37°28' E 025°19'0 0.0
2017-Apr-19 01:00N 37°28' E 025°19'0 0.0
2017-Apr-19 00:30N 37°28' E 025°19'0 0.0
2017-Apr-19 00:00N 37°28' E 025°19'0 0.0
2017-Apr-18 23:30N 37°28' E 025°19'5 9.5
2017-Apr-18 23:00N 37°30' E 025°14'4 8.9
2017-Apr-18 22:30N 37°32' E 025°09'816.3
2017-Apr-18 21:59N 37°36' E 024°60'2619.7
2017-Apr-18 20:41N 37°49' E 024°32'319.7
2017-Apr-18 20:30N 37°51' E 024°28'1019.2
2017-Apr-18 20:00N 37°55' E 024°17'1019.5
2017-Apr-18 19:31N 37°59' E 024°06'5 4.5
2017-Apr-18 18:28N 38°01' E 024°01'716.2
2017-Apr-18 18:01N 37°59' E 024°10'1020.1
2017-Apr-18 17:31N 37°57' E 024°22'1020.1
2017-Apr-18 17:00N 37°54' E 024°34'16 9.7
2017-Apr-18 15:22N 37°45' E 024°51'820.2
2017-Apr-18 14:57N 37°39' E 024°58'1112.2
2017-Apr-18 14:00N 37°32' E 025°10'917.3
2017-Apr-18 13:30N 37°28' E 025°19'2 3.1
2017-Apr-18 13:00N 37°28' E 025°18'1020.1
2017-Apr-18 12:30N 37°33' E 025°06'1120.2
2017-Apr-18 11:58N 37°38' E 024°54'3720.0
2017-Apr-18 10:06N 37°57' E 024°13'219.9
2017-Apr-18 09:58N 37°58' E 024°10'8 6.6
2017-Apr-18 08:42N 38°01' E 024°01'317.3
2017-Apr-18 08:30N 38°01' E 024°05'1020.3
2017-Apr-18 08:00N 37°58' E 024°17'2914.3
2017-Apr-18 05:57N 37°45' E 024°51'920.4
2017-Apr-18 05:31N 37°39' E 024°58'1019.8
2017-Apr-18 05:01N 37°32' E 025°08'3 6.5
2017-Apr-18 04:30N 37°31' E 025°12'713.6
2017-Apr-18 04:01N 37°28' E 025°19'0 0.0
2017-Apr-18 03:31N 37°28' E 025°19'0 0.0
2017-Apr-18 03:01N 37°28' E 025°19'0 0.0
2017-Apr-18 02:30N 37°28' E 025°19'0 0.0
2017-Apr-18 02:01N 37°28' E 025°19'0 0.0
2017-Apr-18 01:31N 37°28' E 025°19'0 0.0
2017-Apr-18 01:00N 37°28' E 025°19'0 0.0
2017-Apr-18 00:30N 37°28' E 025°19'0 0.0
2017-Apr-18 00:01N 37°28' E 025°19'0 0.0
2017-Apr-17 23:30N 37°28' E 025°19'0 0.0
2017-Apr-17 23:01N 37°28' E 025°19'3 6.6
2017-Apr-17 22:31N 37°29' E 025°16'1020.1
2017-Apr-17 22:01N 37°33' E 025°04'1020.2
2017-Apr-17 21:30N 37°38' E 024°53'1620.2
2017-Apr-17 20:42N 37°46' E 024°35'420.1
2017-Apr-17 20:30N 37°48' E 024°31'1019.9
2017-Apr-17 20:00N 37°53' E 024°20'1019.9
2017-Apr-17 19:30N 37°58' E 024°09'7 9.1
2017-Apr-17 18:43N 38°01' E 024°01'313.5
2017-Apr-17 18:30N 38°01' E 024°04'1020.0
2017-Apr-17 18:00N 37°57' E 024°16'1020.0
2017-Apr-17 17:30N 37°55' E 024°29'2 1.0
2017-Apr-17 15:29N 37°54' E 024°31'1320.4
2017-Apr-17 14:49N 37°58' E 024°15'620.3
2017-Apr-17 14:31N 37°60' E 024°07'38 9.9
2017-Apr-17 10:42N 37°45' E 024°51'720.3
2017-Apr-17 10:21N 37°40' E 024°57'720.3
2017-Apr-17 10:01N 37°35' E 025°04'510.6
2017-Apr-17 09:30N 37°32' E 025°09'611.8
2017-Apr-17 09:00N 37°29' E 025°16'3 6.4
2017-Apr-17 08:31N 37°28' E 025°19'0 0.0
2017-Apr-17 08:00N 37°28' E 025°19'0 0.0
2017-Apr-17 07:30N 37°28' E 025°19'0 0.0
2017-Apr-17 07:01N 37°28' E 025°19'1 2.2
2017-Apr-17 06:30N 37°28' E 025°18'815.6
2017-Apr-17 06:00N 37°32' E 025°10'0 0.1
2017-Apr-17 05:30N 37°32' E 025°10'0 0.0
2017-Apr-17 05:00N 37°32' E 025°10'0 0.0
2017-Apr-17 04:30N 37°32' E 025°10'0 0.0
2017-Apr-17 04:00N 37°32' E 025°10'0 0.0
2017-Apr-17 03:30N 37°32' E 025°10'0 0.0
2017-Apr-17 03:00N 37°32' E 025°10'0 0.0
2017-Apr-17 02:30N 37°32' E 025°10'0 0.0
2017-Apr-17 02:00N 37°32' E 025°10'0 0.0
2017-Apr-17 01:30N 37°32' E 025°10'0 0.0
2017-Apr-17 01:00N 37°32' E 025°10'0 0.0
2017-Apr-17 00:30N 37°32' E 025°10'0 0.0
2017-Apr-17 00:00N 37°32' E 025°10'0 0.0
2017-Apr-16 23:30N 37°32' E 025°10'0 0.0
2017-Apr-16 23:00N 37°32' E 025°10'0 0.0
2017-Apr-16 22:30N 37°32' E 025°10'0 0.0
2017-Apr-16 22:00N 37°32' E 025°10'0 0.0
2017-Apr-16 21:30N 37°32' E 025°10'0 0.0
2017-Apr-16 21:00N 37°32' E 025°10'0 0.0
2017-Apr-16 20:30N 37°32' E 025°10'0 0.0
2017-Apr-16 20:00N 37°32' E 025°10'0 0.0
2017-Apr-16 19:30N 37°32' E 025°10'0 0.0
2017-Apr-16 19:00N 37°32' E 025°10'0 0.0
2017-Apr-16 18:30N 37°32' E 025°10'0 0.0
2017-Apr-16 18:00N 37°32' E 025°10'0 0.0
2017-Apr-16 17:30N 37°32' E 025°10'0 0.0
2017-Apr-16 17:00N 37°32' E 025°10'0 0.0
2017-Apr-16 16:30N 37°32' E 025°10'0 0.0
2017-Apr-16 16:00N 37°32' E 025°10'0 0.0
2017-Apr-16 15:30N 37°32' E 025°10'0 0.0
2017-Apr-16 15:00N 37°32' E 025°10'0 0.0
2017-Apr-16 14:30N 37°32' E 025°10'0 0.0
2017-Apr-16 13:30N 37°32' E 025°10'0 0.0
2017-Apr-16 13:00N 37°32' E 025°10'0 0.0
2017-Apr-16 12:30N 37°32' E 025°10'0 0.0
2017-Apr-16 12:00N 37°32' E 025°10'0 0.0
2017-Apr-16 11:30N 37°32' E 025°10'0 0.0
2017-Apr-16 11:00N 37°32' E 025°10'0 0.0
2017-Apr-16 10:30N 37°32' E 025°10'0 0.0
2017-Apr-16 10:00N 37°32' E 025°10'0 0.0
2017-Apr-16 09:30N 37°32' E 025°10'0 0.0
2017-Apr-16 09:00N 37°32' E 025°10'0 0.0
2017-Apr-16 08:30N 37°32' E 025°10'0 0.0
2017-Apr-16 08:00N 37°32' E 025°10'0 0.0
2017-Apr-16 07:30N 37°32' E 025°10'0 0.0
2017-Apr-16 07:00N 37°32' E 025°10'0 0.0
2017-Apr-16 06:30N 37°32' E 025°10'0 0.0
2017-Apr-16 06:00N 37°32' E 025°10'0 0.0
2017-Apr-16 05:30N 37°32' E 025°10'  
Track history (hours):
 
Tides and Currents Weather Stations Pressure Air Temp Water Temp Dewpoint Dewpoint Depression Visibility Wind Speed Wind Dir Waves Ship Positions

Superferry II

Last reported at 2017-Apr-26 05:13 UTC. Time now 2017-Apr-26 06:09 UTC.
Position N 37°60' E 024°09'.

Length 122 m; draft 4.7 m.

Type: Passenger vessel. MMSI: 237001000.

Date/timePositionNaut miles runAvg speedWind from/ knotsBaromVisibWave heightAir tempDewpointWater temp
2017-Apr-26 05:13N 37°60' E 024°09'519.8
2017-Apr-26 05:00N 38°01' E 024°03'2 1.3
2017-Apr-26 03:21N 38°01' E 024°01'0 0.0
2017-Apr-26 02:59N 38°01' E 024°01'0 0.0
2017-Apr-26 02:29N 38°01' E 024°01'0 0.0
2017-Apr-26 02:00N 38°01' E 024°01'0 0.0
2017-Apr-26 01:16N 38°01' E 024°01'0 0.0
2017-Apr-25 21:35N 38°01' E 024°01'0 0.0
2017-Apr-25 21:30N 38°01' E 024°01'0 0.0
2017-Apr-25 21:00N 38°01' E 024°01'0 0.0
2017-Apr-25 20:03N 38°01' E 024°01'0 0.0
2017-Apr-25 19:54N 38°01' E 024°01'0 0.0
2017-Apr-25 19:26N 38°01' E 024°01'0 0.0
2017-Apr-25 18:54N 38°01' E 024°01'0 0.0
2017-Apr-25 18:30N 38°01' E 024°01'0 0.0
2017-Apr-25 17:59N 38°01' E 024°01'0 0.0
2017-Apr-25 17:29N 38°01' E 024°01'0 0.1
2017-Apr-25 15:19N 38°02' E 024°01'619.0
2017-Apr-25 15:00N 37°60' E 024°08'3715.2
2017-Apr-25 12:36N 37°45' E 024°51'220.6
2017-Apr-25 12:30N 37°43' E 024°52'1020.3
2017-Apr-25 12:00N 37°36' E 025°01'815.1
2017-Apr-25 11:30N 37°32' E 025°09'611.9
2017-Apr-25 11:01N 37°29' E 025°16'3 6.4
2017-Apr-25 10:30N 37°28' E 025°19'0 0.0
2017-Apr-25 10:00N 37°28' E 025°19'0 0.0
2017-Apr-25 09:30N 37°28' E 025°19'611.3
2017-Apr-25 09:00N 37°30' E 025°13'5 9.8
2017-Apr-25 08:31N 37°33' E 025°08'5216.5
2017-Apr-25 05:21N 37°59' E 024°11'719.8
2017-Apr-25 05:00N 38°01' E 024°03'1 0.9
2017-Apr-25 03:20N 38°01' E 024°01'0 0.0
2017-Apr-25 02:59N 38°01' E 024°01'0 0.0
2017-Apr-25 01:21N 38°01' E 024°01'0 0.0
2017-Apr-24 22:21N 38°01' E 024°01'0 0.0
2017-Apr-24 21:54N 38°01' E 024°01'0 0.0
2017-Apr-24 21:17N 38°01' E 024°01'0 0.0
2017-Apr-24 20:53N 38°01' E 024°01'0 0.0
2017-Apr-24 20:20N 38°01' E 024°01'0 0.0
2017-Apr-24 19:51N 38°01' E 024°01'0 0.0
2017-Apr-24 19:26N 38°01' E 024°01'0 0.0
2017-Apr-24 18:59N 38°01' E 024°01'0 0.0
2017-Apr-24 15:21N 38°01' E 024°01'818.7
2017-Apr-24 14:57N 37°59' E 024°10'3515.4
2017-Apr-24 12:40N 37°45' E 024°50'420.4
2017-Apr-24 12:29N 37°42' E 024°54'1020.3
2017-Apr-24 12:00N 37°35' E 025°03'612.3
2017-Apr-24 11:30N 37°32' E 025°09'611.3
2017-Apr-24 11:01N 37°29' E 025°15'4 7.0
2017-Apr-24 10:30N 37°28' E 025°19'0 0.0
2017-Apr-24 10:01N 37°28' E 025°19'0 0.0
2017-Apr-24 09:30N 37°28' E 025°19'611.8
2017-Apr-24 09:00N 37°30' E 025°13'510.3
2017-Apr-24 08:31N 37°33' E 025°07'5316.2
2017-Apr-24 05:13N 37°60' E 024°09'420.1
2017-Apr-24 05:00N 38°01' E 024°03'2 0.2
2017-Apr-23 17:24N 38°01' E 024°01'616.2
2017-Apr-23 17:00N 37°60' E 024°09'1020.2
2017-Apr-23 16:30N 37°57' E 024°21'2714.2
2017-Apr-23 14:37N 37°45' E 024°51'1320.4
2017-Apr-23 14:01N 37°36' E 025°02'713.7
2017-Apr-23 13:30N 37°32' E 025°09'612.7
2017-Apr-23 13:00N 37°29' E 025°16'3 5.9
2017-Apr-23 12:30N 37°28' E 025°20'0 0.0
2017-Apr-23 12:00N 37°28' E 025°20'0 0.0
2017-Apr-23 11:30N 37°28' E 025°20'0 0.0
2017-Apr-23 11:00N 37°28' E 025°20'0 0.0
2017-Apr-23 10:30N 37°28' E 025°20'0 0.0
2017-Apr-23 09:59N 37°28' E 025°20'0 0.0
2017-Apr-23 09:22N 37°28' E 025°20'0 0.0
2017-Apr-23 09:00N 37°28' E 025°20'0 0.0
2017-Apr-23 08:30N 37°28' E 025°20'0 0.0
2017-Apr-23 08:00N 37°28' E 025°20'0 0.0
2017-Apr-23 07:30N 37°28' E 025°20'0 0.0
2017-Apr-23 07:00N 37°28' E 025°20'0 0.0
2017-Apr-23 06:30N 37°28' E 025°20'0 0.0
2017-Apr-23 06:00N 37°28' E 025°20'0 0.0
2017-Apr-23 05:30N 37°28' E 025°20'0 0.0
2017-Apr-23 05:00N 37°28' E 025°20'0 0.0
2017-Apr-23 04:30N 37°28' E 025°20'0 0.0
2017-Apr-23 04:00N 37°28' E 025°20'0 0.0
2017-Apr-23 03:30N 37°28' E 025°20'0 0.0
2017-Apr-23 03:00N 37°28' E 025°20'0 0.0
2017-Apr-23 02:30N 37°28' E 025°20'0 0.0
2017-Apr-23 02:00N 37°28' E 025°20'0 0.0
2017-Apr-23 01:30N 37°28' E 025°20'0 0.0
2017-Apr-23 01:00N 37°28' E 025°20'0 0.0
2017-Apr-23 00:30N 37°28' E 025°20'0 0.0
2017-Apr-23 00:00N 37°28' E 025°20'0 0.0
2017-Apr-22 23:30N 37°28' E 025°20'0 0.0
2017-Apr-22 23:00N 37°28' E 025°20'0 0.0
2017-Apr-22 22:30N 37°28' E 025°20'0 0.0
2017-Apr-22 22:00N 37°28' E 025°20'0 0.0
2017-Apr-22 21:30N 37°28' E 025°20'0 0.0
2017-Apr-22 21:00N 37°28' E 025°20'0 0.0
2017-Apr-22 20:30N 37°28' E 025°20'0 0.0
2017-Apr-22 20:00N 37°28' E 025°20'0 0.0
2017-Apr-22 19:30N 37°28' E 025°20'0 0.0
2017-Apr-22 19:00N 37°28' E 025°20'4 7.7
2017-Apr-22 18:30N 37°29' E 025°15'511.0
2017-Apr-22 18:00N 37°32' E 025°09'714.7
2017-Apr-22 17:30N 37°36' E 025°02'4616.3
2017-Apr-22 14:42N 37°59' E 024°11'419.9
2017-Apr-22 14:30N 38°00' E 024°06'5 4.1
2017-Apr-22 13:22N 38°01' E 024°01'617.0
2017-Apr-22 13:00N 37°60' E 024°08'3716.0
2017-Apr-22 10:43N 37°45' E 024°51'820.0
2017-Apr-22 10:18N 37°39' E 024°58'620.0
2017-Apr-22 10:01N 37°35' E 025°03'510.9
2017-Apr-22 09:30N 37°32' E 025°09'714.4
2017-Apr-22 09:01N 37°28' E 025°17'2 3.7
2017-Apr-22 08:30N 37°28' E 025°19'918.0
2017-Apr-22 08:01N 37°32' E 025°09'611.5
2017-Apr-22 07:30N 37°35' E 025°03'4517.2
2017-Apr-22 04:52N 37°58' E 024°14'720.2
2017-Apr-22 04:30N 38°00' E 024°05'3 0.6
2017-Apr-21 22:50N 38°01' E 024°01'514.7
2017-Apr-21 22:30N 37°60' E 024°07'1020.1
2017-Apr-21 22:00N 37°55' E 024°18'1020.1
2017-Apr-21 21:30N 37°51' E 024°29'1020.1
2017-Apr-21 21:00N 37°46' E 024°41'1020.2
2017-Apr-21 20:30N 37°41' E 024°51'1020.1
2017-Apr-21 20:00N 37°35' E 025°02'1020.3
2017-Apr-21 19:30N 37°30' E 025°13'611.5
2017-Apr-21 19:00N 37°28' E 025°19'4 8.0
2017-Apr-21 18:30N 37°29' E 025°15'510.4
2017-Apr-21 18:00N 37°32' E 025°09'816.7
2017-Apr-21 17:31N 37°37' E 025°01'4616.2
2017-Apr-21 14:39N 37°59' E 024°09'319.6
2017-Apr-21 14:30N 38°00' E 024°06'4 3.3
2017-Apr-21 13:17N 38°01' E 024°01'818.9
2017-Apr-21 12:52N 37°59' E 024°10'3515.9
2017-Apr-21 10:41N 37°45' E 024°51'820.2
2017-Apr-21 10:16N 37°39' E 024°58'519.9
2017-Apr-21 10:00N 37°35' E 025°03'815.0
2017-Apr-21 09:30N 37°31' E 025°11'713.1
2017-Apr-21 09:00N 37°28' E 025°18'1 2.7
2017-Apr-21 08:30N 37°28' E 025°20'0 0.0
2017-Apr-21 08:00N 37°28' E 025°20'0 0.0
2017-Apr-21 07:30N 37°28' E 025°20'0 0.0
2017-Apr-21 07:01N 37°28' E 025°20'0 0.0
2017-Apr-21 06:30N 37°28' E 025°20'0 0.0
2017-Apr-21 06:01N 37°28' E 025°20'0 0.0
2017-Apr-21 05:30N 37°28' E 025°20'0 0.0
2017-Apr-21 05:00N 37°28' E 025°20'0 0.0
2017-Apr-21 04:30N 37°28' E 025°20'0 0.0
2017-Apr-21 04:00N 37°28' E 025°20'0 0.0
2017-Apr-21 03:31N 37°28' E 025°20'0 0.0
2017-Apr-21 03:00N 37°28' E 025°20'0 0.0
2017-Apr-21 02:30N 37°28' E 025°20'0 0.0
2017-Apr-21 02:00N 37°28' E 025°20'0 0.0
2017-Apr-21 01:31N 37°28' E 025°20'0 0.0
2017-Apr-21 01:00N 37°28' E 025°20'0 0.0
2017-Apr-21 00:30N 37°28' E 025°20'0 0.0
2017-Apr-21 00:00N 37°28' E 025°20'0 0.0
2017-Apr-20 23:30N 37°28' E 025°20'0 0.0
2017-Apr-20 23:00N 37°28' E 025°20'0 0.0
2017-Apr-20 22:30N 37°28' E 025°20'0 0.0
2017-Apr-20 22:00N 37°28' E 025°20'0 0.0
2017-Apr-20 21:30N 37°28' E 025°20'0 0.0
2017-Apr-20 21:00N 37°28' E 025°20'0 0.0
2017-Apr-20 20:30N 37°28' E 025°20'0 0.0
2017-Apr-20 20:00N 37°28' E 025°20'0 0.0
2017-Apr-20 19:30N 37°28' E 025°20'0 0.0
2017-Apr-20 19:00N 37°28' E 025°20'4 7.1
2017-Apr-20 18:30N 37°29' E 025°15'611.5
2017-Apr-20 18:00N 37°32' E 025°09'713.8
2017-Apr-20 17:30N 37°36' E 025°02'1220.0
2017-Apr-20 16:55N 37°45' E 024°52'819.9
2017-Apr-20 16:30N 37°51' E 024°45'2 4.4
2017-Apr-20 16:00N 37°52' E 024°42'2819.8
2017-Apr-20 14:37N 37°60' E 024°09'220.0
2017-Apr-20 14:30N 38°00' E 024°06'4 3.4
2017-Apr-20 13:16N 38°01' E 024°01'518.8
2017-Apr-20 13:00N 38°00' E 024°07'3815.9
2017-Apr-20 10:39N 37°45' E 024°51'320.3
2017-Apr-20 10:31N 37°43' E 024°53'1020.2
2017-Apr-20 10:01N 37°36' E 025°02'713.2
2017-Apr-20 09:30N 37°32' E 025°09'715.0
2017-Apr-20 09:00N 37°28' E 025°17'2 3.3
2017-Apr-20 08:30N 37°28' E 025°19'0 0.0
2017-Apr-20 08:00N 37°28' E 025°19'0 0.0
2017-Apr-20 07:31N 37°28' E 025°19'0 0.0
2017-Apr-20 07:00N 37°28' E 025°19'0 0.0
2017-Apr-20 06:31N 37°28' E 025°19'0 0.0
2017-Apr-20 06:01N 37°28' E 025°19'0 0.0
2017-Apr-20 05:31N 37°28' E 025°19'0 0.0
2017-Apr-20 05:01N 37°28' E 025°19'0 0.0
2017-Apr-20 04:30N 37°28' E 025°19'0 0.0
2017-Apr-20 04:01N 37°28' E 025°19'0 0.0
2017-Apr-20 03:31N 37°28' E 025°19'0 0.0
2017-Apr-20 03:00N 37°28' E 025°19'0 0.0
2017-Apr-20 02:30N 37°28' E 025°19'0 0.0
2017-Apr-20 02:01N 37°28' E 025°19'0 0.0
2017-Apr-20 01:30N 37°28' E 025°19'0 0.0
2017-Apr-20 01:01N 37°28' E 025°19'0 0.0
2017-Apr-20 00:30N 37°28' E 025°19'0 0.0
2017-Apr-20 00:00N 37°28' E 025°19'0 0.0
2017-Apr-19 23:31N 37°28' E 025°19'0 0.0
2017-Apr-19 23:01N 37°28' E 025°19'0 0.0
2017-Apr-19 22:30N 37°28' E 025°19'0 0.0
2017-Apr-19 22:00N 37°28' E 025°19'0 0.0
2017-Apr-19 21:30N 37°28' E 025°19'0 0.0
2017-Apr-19 21:01N 37°28' E 025°19'0 0.0
2017-Apr-19 20:31N 37°28' E 025°19'0 0.0
2017-Apr-19 20:00N 37°28' E 025°19'0 0.0
2017-Apr-19 19:30N 37°28' E 025°19'0 0.0
2017-Apr-19 19:00N 37°28' E 025°19'4 7.1
2017-Apr-19 18:30N 37°29' E 025°15'611.5
2017-Apr-19 18:00N 37°32' E 025°09'816.1
2017-Apr-19 17:30N 37°37' E 025°01'4616.4
2017-Apr-19 14:40N 37°59' E 024°10'319.7
2017-Apr-19 14:30N 38°00' E 024°06'4 1.9
2017-Apr-19 12:37N 38°02' E 024°01'319.4
2017-Apr-19 12:29N 38°01' E 024°04'4015.5
2017-Apr-19 09:54N 37°45' E 024°51'820.2
2017-Apr-19 09:30N 37°39' E 024°58'1020.0
2017-Apr-19 09:00N 37°33' E 025°07'3 5.9
2017-Apr-19 08:30N 37°31' E 025°11'815.4
2017-Apr-19 08:00N 37°28' E 025°19'0 0.0
2017-Apr-19 07:30N 37°28' E 025°19'0 0.0
2017-Apr-19 07:00N 37°28' E 025°19'0 0.0
2017-Apr-19 06:30N 37°28' E 025°19'0 0.0
2017-Apr-19 06:00N 37°28' E 025°19'0 0.0
2017-Apr-19 05:30N 37°28' E 025°19'0 0.0
2017-Apr-19 05:00N 37°28' E 025°19'0 0.0
2017-Apr-19 04:30N 37°28' E 025°19'0 0.0
2017-Apr-19 04:00N 37°28' E 025°19'0 0.0
2017-Apr-19 03:30N 37°28' E 025°19'0 0.0
2017-Apr-19 03:00N 37°28' E 025°19'0 0.0
2017-Apr-19 02:30N 37°28' E 025°19'0 0.0
2017-Apr-19 02:00N 37°28' E 025°19'0 0.0
2017-Apr-19 01:30N 37°28' E 025°19'0 0.0
2017-Apr-19 01:00N 37°28' E 025°19'0 0.0
2017-Apr-19 00:30N 37°28' E 025°19'0 0.0
2017-Apr-19 00:00N 37°28' E 025°19'0 0.0
2017-Apr-18 23:30N 37°28' E 025°19'5 9.5
2017-Apr-18 23:00N 37°30' E 025°14'4 8.9
2017-Apr-18 22:30N 37°32' E 025°09'816.3
2017-Apr-18 21:59N 37°36' E 024°60'2619.7
2017-Apr-18 20:41N 37°49' E 024°32'319.7
2017-Apr-18 20:30N 37°51' E 024°28'1019.2
2017-Apr-18 20:00N 37°55' E 024°17'1019.5
2017-Apr-18 19:31N 37°59' E 024°06'5 4.5
2017-Apr-18 18:28N 38°01' E 024°01'716.2
2017-Apr-18 18:01N 37°59' E 024°10'1020.1
2017-Apr-18 17:31N 37°57' E 024°22'1020.1
2017-Apr-18 17:00N 37°54' E 024°34'16 9.7
2017-Apr-18 15:22N 37°45' E 024°51'820.2
2017-Apr-18 14:57N 37°39' E 024°58'1112.2
2017-Apr-18 14:00N 37°32' E 025°10'917.3
2017-Apr-18 13:30N 37°28' E 025°19'2 3.1
2017-Apr-18 13:00N 37°28' E 025°18'1020.1
2017-Apr-18 12:30N 37°33' E 025°06'1120.2
2017-Apr-18 11:58N 37°38' E 024°54'3720.0
2017-Apr-18 10:06N 37°57' E 024°13'219.9
2017-Apr-18 09:58N 37°58' E 024°10'8 6.6
2017-Apr-18 08:42N 38°01' E 024°01'317.3
2017-Apr-18 08:30N 38°01' E 024°05'1020.3
2017-Apr-18 08:00N 37°58' E 024°17'2914.3
2017-Apr-18 05:57N 37°45' E 024°51'920.4
2017-Apr-18 05:31N 37°39' E 024°58'1019.8
2017-Apr-18 05:01N 37°32' E 025°08'3 6.5
2017-Apr-18 04:30N 37°31' E 025°12'713.6
2017-Apr-18 04:01N 37°28' E 025°19'0 0.0
2017-Apr-18 03:31N 37°28' E 025°19'0 0.0
2017-Apr-18 03:01N 37°28' E 025°19'0 0.0
2017-Apr-18 02:30N 37°28' E 025°19'0 0.0
2017-Apr-18 02:01N 37°28' E 025°19'0 0.0
2017-Apr-18 01:31N 37°28' E 025°19'0 0.0
2017-Apr-18 01:00N 37°28' E 025°19'0 0.0
2017-Apr-18 00:30N 37°28' E 025°19'0 0.0
2017-Apr-18 00:01N 37°28' E 025°19'0 0.0
2017-Apr-17 23:30N 37°28' E 025°19'0 0.0
2017-Apr-17 23:01N 37°28' E 025°19'3 6.6
2017-Apr-17 22:31N 37°29' E 025°16'1020.1
2017-Apr-17 22:01N 37°33' E 025°04'1020.2
2017-Apr-17 21:30N 37°38' E 024°53'1620.2
2017-Apr-17 20:42N 37°46' E 024°35'420.1
2017-Apr-17 20:30N 37°48' E 024°31'1019.9
2017-Apr-17 20:00N 37°53' E 024°20'1019.9
2017-Apr-17 19:30N 37°58' E 024°09'7 9.1
2017-Apr-17 18:43N 38°01' E 024°01'313.5
2017-Apr-17 18:30N 38°01' E 024°04'1020.0
2017-Apr-17 18:00N 37°57' E 024°16'1020.0
2017-Apr-17 17:30N 37°55' E 024°29'2 1.0
2017-Apr-17 15:29N 37°54' E 024°31'1320.4
2017-Apr-17 14:49N 37°58' E 024°15'620.3
2017-Apr-17 14:31N 37°60' E 024°07'38 9.9
2017-Apr-17 10:42N 37°45' E 024°51'720.3
2017-Apr-17 10:21N 37°40' E 024°57'720.3
2017-Apr-17 10:01N 37°35' E 025°04'510.6
2017-Apr-17 09:30N 37°32' E 025°09'611.8
2017-Apr-17 09:00N 37°29' E 025°16'3 6.4
2017-Apr-17 08:31N 37°28' E 025°19'0 0.0
2017-Apr-17 08:00N 37°28' E 025°19'0 0.0
2017-Apr-17 07:30N 37°28' E 025°19'0 0.0
2017-Apr-17 07:01N 37°28' E 025°19'1 2.2
2017-Apr-17 06:30N 37°28' E 025°18'815.6
2017-Apr-17 06:00N 37°32' E 025°10'0 0.1
2017-Apr-17 05:30N 37°32' E 025°10'0 0.0
2017-Apr-17 05:00N 37°32' E 025°10'0 0.0
2017-Apr-17 04:30N 37°32' E 025°10'0 0.0
2017-Apr-17 04:00N 37°32' E 025°10'0 0.0
2017-Apr-17 03:30N 37°32' E 025°10'0 0.0
2017-Apr-17 03:00N 37°32' E 025°10'0 0.0
2017-Apr-17 02:30N 37°32' E 025°10'0 0.0
2017-Apr-17 02:00N 37°32' E 025°10'0 0.0
2017-Apr-17 01:30N 37°32' E 025°10'0 0.0
2017-Apr-17 01:00N 37°32' E 025°10'0 0.0
2017-Apr-17 00:30N 37°32' E 025°10'0 0.0
2017-Apr-17 00:00N 37°32' E 025°10'0 0.0
2017-Apr-16 23:30N 37°32' E 025°10'0 0.0
2017-Apr-16 23:00N 37°32' E 025°10'0 0.0
2017-Apr-16 22:30N 37°32' E 025°10'0 0.0
2017-Apr-16 22:00N 37°32' E 025°10'0 0.0
2017-Apr-16 21:30N 37°32' E 025°10'0 0.0
2017-Apr-16 21:00N 37°32' E 025°10'0 0.0
2017-Apr-16 20:30N 37°32' E 025°10'0 0.0
2017-Apr-16 20:00N 37°32' E 025°10'0 0.0
2017-Apr-16 19:30N 37°32' E 025°10'0 0.0
2017-Apr-16 19:00N 37°32' E 025°10'0 0.0
2017-Apr-16 18:30N 37°32' E 025°10'0 0.0
2017-Apr-16 18:00N 37°32' E 025°10'0 0.0
2017-Apr-16 17:30N 37°32' E 025°10'0 0.0
2017-Apr-16 17:00N 37°32' E 025°10'0 0.0
2017-Apr-16 16:30N 37°32' E 025°10'0 0.0
2017-Apr-16 16:00N 37°32' E 025°10'0 0.0
2017-Apr-16 15:30N 37°32' E 025°10'0 0.0
2017-Apr-16 15:00N 37°32' E 025°10'0 0.0
2017-Apr-16 14:30N 37°32' E 025°10'0 0.0
2017-Apr-16 13:30N 37°32' E 025°10'0 0.0
2017-Apr-16 13:00N 37°32' E 025°10'0 0.0
2017-Apr-16 12:30N 37°32' E 025°10'0 0.0
2017-Apr-16 12:00N 37°32' E 025°10'0 0.0
2017-Apr-16 11:30N 37°32' E 025°10'0 0.0
2017-Apr-16 11:00N 37°32' E 025°10'0 0.0
2017-Apr-16 10:30N 37°32' E 025°10'0 0.0
2017-Apr-16 10:00N 37°32' E 025°10'0 0.0
2017-Apr-16 09:30N 37°32' E 025°10'0 0.0
2017-Apr-16 09:00N 37°32' E 025°10'0 0.0
2017-Apr-16 08:30N 37°32' E 025°10'0 0.0
2017-Apr-16 08:00N 37°32' E 025°10'0 0.0
2017-Apr-16 07:30N 37°32' E 025°10'0 0.0
2017-Apr-16 07:00N 37°32' E 025°10'0 0.0
2017-Apr-16 06:30N 37°32' E 025°10'0 0.0
2017-Apr-16 06:00N 37°32' E 025°10'0 0.0
2017-Apr-16 05:30N 37°32' E 025°10'  

Dump ship's entire track history